createdAt,value
2023-03-27T00:02:29.074Z,59.72
2023-03-27T00:04:57.338Z,59.88
2023-03-27T00:07:45.375Z,59.91
2023-03-27T00:10:13.560Z,59.87
2023-03-27T00:12:47.275Z,60.02
2023-03-27T00:15:20.148Z,59.95
2023-03-27T00:17:51.522Z,60.12
2023-03-27T00:20:27.137Z,60.46
2023-03-27T00:23:00.943Z,60.75
2023-03-27T00:25:30.244Z,60.80
2023-03-27T00:28:04.357Z,60.87
2023-03-27T00:30:34.014Z,61.12
2023-03-27T00:33:02.715Z,61.29
2023-03-27T00:35:31.482Z,61.27
2023-03-27T00:38:00.056Z,61.47
2023-03-27T00:40:28.302Z,61.59
2023-03-27T00:42:58.011Z,61.96
2023-03-27T00:45:30.333Z,62.03
2023-03-27T00:48:02.257Z,61.85
2023-03-27T00:50:36.851Z,61.86
2023-03-27T00:53:14.572Z,61.94
2023-03-27T00:55:45.407Z,62.42
2023-03-27T00:58:17.806Z,62.54
2023-03-27T01:00:46.264Z,62.60
2023-03-27T01:03:15.124Z,62.69
2023-03-27T01:05:43.943Z,62.76
2023-03-27T01:08:12.830Z,62.75
2023-03-27T01:10:44.588Z,62.71
2023-03-27T01:13:24.436Z,62.72
2023-03-27T01:16:46.136Z,62.72
2023-03-27T01:19:29.462Z,62.68
2023-03-27T01:22:27.947Z,62.61
2023-03-27T01:25:17.658Z,62.39
2023-03-27T01:28:13.176Z,62.44
2023-03-27T01:30:51.778Z,62.55
2023-03-27T01:33:39.324Z,62.60
2023-03-27T01:36:29.819Z,62.56
2023-03-27T01:39:02.954Z,62.55
2023-03-27T01:41:32.620Z,62.64
2023-03-27T01:44:10.016Z,62.34
2023-03-27T01:46:56.716Z,62.37
2023-03-27T01:49:29.190Z,62.66
2023-03-27T01:52:02.658Z,62.57
2023-03-27T01:54:38.783Z,62.46
2023-03-27T01:57:25.026Z,62.43
2023-03-27T02:00:17.296Z,62.54
2023-03-27T02:02:54.464Z,62.67
2023-03-27T02:05:44.683Z,62.61
2023-03-27T02:08:29.954Z,62.55
2023-03-27T02:11:07.033Z,62.35
2023-03-27T02:13:54.491Z,62.39
2023-03-27T02:16:25.494Z,62.53
2023-03-27T02:18:59.590Z,62.69
2023-03-27T02:21:28.115Z,62.68
2023-03-27T02:24:02.247Z,62.68
2023-03-27T02:26:31.107Z,62.66
2023-03-27T02:29:18.624Z,62.53
2023-03-27T02:32:38.582Z,62.57
2023-03-27T02:35:46.245Z,62.53
2023-03-27T02:38:23.816Z,62.67
2023-03-27T02:40:58.455Z,62.84
2023-03-27T02:43:56.922Z,62.77
2023-03-27T02:46:59.686Z,62.85
2023-03-27T02:49:31.639Z,62.80
2023-03-27T02:52:06.641Z,62.83
2023-03-27T02:54:38.831Z,62.96
2023-03-27T02:57:14.449Z,63.22
2023-03-27T03:00:06.056Z,63.38
2023-03-27T03:02:38.289Z,63.37
2023-03-27T03:05:09.172Z,63.54
2023-03-27T03:07:40.403Z,63.52
2023-03-27T03:10:11.680Z,63.43
2023-03-27T03:12:40.554Z,63.35
2023-03-27T03:15:10.763Z,63.41
2023-03-27T03:17:39.203Z,63.51
2023-03-27T03:20:13.569Z,63.73
2023-03-27T03:22:43.890Z,63.57
2023-03-27T03:25:14.940Z,63.51
2023-03-27T03:27:44.350Z,63.42
2023-03-27T03:30:17.022Z,63.35
2023-03-27T03:33:20.627Z,63.58
2023-03-27T03:35:50.396Z,63.57
2023-03-27T03:38:29.875Z,63.53
2023-03-27T03:41:07.981Z,63.49
2023-03-27T03:43:36.460Z,63.67
2023-03-27T03:46:05.646Z,63.76
2023-03-27T03:48:34.359Z,63.84
2023-03-27T03:51:03.549Z,63.86
2023-03-27T03:53:32.008Z,63.82
2023-03-27T03:56:00.108Z,63.86
2023-03-27T03:58:34.896Z,63.80
2023-03-27T04:01:05.968Z,63.96
2023-03-27T04:03:45.727Z,64.10
2023-03-27T04:06:17.772Z,64.08
2023-03-27T04:08:50.094Z,64.16
2023-03-27T04:11:37.840Z,64.55
2023-03-27T04:14:20.082Z,64.75
2023-03-27T04:16:50.416Z,64.70
2023-03-27T04:19:24.797Z,64.58
2023-03-27T04:22:02.238Z,64.57
2023-03-27T04:24:35.040Z,64.88
2023-03-27T04:27:03.994Z,64.86
2023-03-27T04:29:55.218Z,64.86
2023-03-27T04:32:51.077Z,64.99
2023-03-27T04:35:40.220Z,64.99
2023-03-27T04:38:17.123Z,64.96
2023-03-27T04:40:49.663Z,64.85
2023-03-27T04:43:20.498Z,64.81
2023-03-27T04:45:48.678Z,64.84
2023-03-27T04:48:18.249Z,64.86
2023-03-27T04:50:50.351Z,64.79
2023-03-27T04:53:32.656Z,64.63
2023-03-27T04:56:02.260Z,64.68
2023-03-27T04:58:36.601Z,64.65
2023-03-27T05:01:10.052Z,64.57
2023-03-27T05:03:42.011Z,64.46
2023-03-27T05:06:21.885Z,64.57
2023-03-27T05:08:51.349Z,64.48
2023-03-27T05:11:32.683Z,64.30
2023-03-27T05:14:04.308Z,64.23
2023-03-27T05:16:36.131Z,64.15
2023-03-27T05:19:05.666Z,64.03
2023-03-27T05:21:44.126Z,63.82
2023-03-27T05:24:13.760Z,63.72
2023-03-27T05:26:43.154Z,63.70
2023-03-27T05:29:11.600Z,63.51
2023-03-27T05:31:42.341Z,63.26
2023-03-27T05:34:38.717Z,63.29
2023-03-27T05:37:08.065Z,63.05
2023-03-27T05:39:48.447Z,62.90
2023-03-27T05:42:17.225Z,62.60
2023-03-27T05:44:45.711Z,62.39
2023-03-27T05:47:15.633Z,62.41
2023-03-27T05:49:44.138Z,62.33
2023-03-27T05:52:16.276Z,62.03
2023-03-27T05:54:45.875Z,61.94
2023-03-27T05:57:13.956Z,61.91
2023-03-27T05:59:44.776Z,62.01
2023-03-27T06:02:23.932Z,62.01
2023-03-27T06:04:59.084Z,61.90
2023-03-27T06:07:31.788Z,61.53
2023-03-27T06:10:05.565Z,61.29
2023-03-27T06:13:01.605Z,61.07
2023-03-27T06:15:47.828Z,60.74
2023-03-27T06:18:20.342Z,60.56
2023-03-27T06:20:52.062Z,60.25
2023-03-27T06:23:20.694Z,59.90
2023-03-27T06:25:48.975Z,59.62
2023-03-27T06:28:17.345Z,59.60
2023-03-27T06:30:47.962Z,59.51
2023-03-27T06:33:49.011Z,59.40
2023-03-27T06:36:38.084Z,59.43
2023-03-27T06:39:08.519Z,59.07
2023-03-27T06:41:37.202Z,58.77
2023-03-27T06:44:34.866Z,58.82
2023-03-27T06:47:17.848Z,58.73
2023-03-27T06:49:52.308Z,58.67
2023-03-27T06:52:23.866Z,58.53
2023-03-27T06:54:53.373Z,58.42
2023-03-27T06:57:23.490Z,58.57
2023-03-27T06:59:59.117Z,58.51
2023-03-27T07:02:43.418Z,58.39
2023-03-27T07:05:31.841Z,58.44
2023-03-27T07:08:08.138Z,58.35
2023-03-27T07:10:46.982Z,58.21
2023-03-27T07:13:25.733Z,58.01
2023-03-27T07:15:55.257Z,57.76
2023-03-27T07:18:25.019Z,57.61
2023-03-27T07:20:56.901Z,57.34
2023-03-27T07:23:25.519Z,57.23
2023-03-27T07:26:00.729Z,57.06
2023-03-27T07:28:48.173Z,56.60
2023-03-27T07:33:49.552Z,55.99
2023-03-27T07:36:18.432Z,55.96
2023-03-27T07:39:14.459Z,55.81
2023-03-27T07:41:43.048Z,55.91
2023-03-27T07:44:36.661Z,55.79
2023-03-27T07:47:07.452Z,55.80
2023-03-27T07:49:40.196Z,55.49
2023-03-27T07:52:14.734Z,54.90
2023-03-27T07:54:51.649Z,54.01
2023-03-27T07:57:21.989Z,53.81
2023-03-27T07:59:52.930Z,53.24
2023-03-27T08:02:42.429Z,52.55
2023-03-27T08:05:11.471Z,52.70
2023-03-27T08:07:42.628Z,52.37
2023-03-27T08:10:13.959Z,51.38
2023-03-27T08:12:53.813Z,51.26
2023-03-27T08:15:22.405Z,50.58
2023-03-27T08:17:56.869Z,50.66
2023-03-27T08:20:27.350Z,50.99
2023-03-27T08:22:55.520Z,51.33
2023-03-27T08:25:34.800Z,51.03
2023-03-27T08:28:07.336Z,50.82
2023-03-27T08:30:36.870Z,50.47
2023-03-27T08:33:05.761Z,50.48
2023-03-27T08:35:34.587Z,50.01
2023-03-27T08:38:07.345Z,49.24
2023-03-27T08:41:05.196Z,48.69
2023-03-27T08:43:41.575Z,48.97
2023-03-27T08:46:24.340Z,48.73
2023-03-27T08:49:08.303Z,47.50
2023-03-27T08:51:55.932Z,46.82
2023-03-27T08:54:27.922Z,46.16
2023-03-27T08:56:57.242Z,45.54
2023-03-27T08:59:30.593Z,44.98
2023-03-27T09:02:09.187Z,44.29
2023-03-27T09:04:52.091Z,44.59
2023-03-27T09:07:41.508Z,44.92
2023-03-27T09:10:46.473Z,44.77
2023-03-27T09:13:51.904Z,44.98
2023-03-27T09:16:49.686Z,44.89
2023-03-27T09:19:39.135Z,44.16
2023-03-27T09:22:16.730Z,43.91
2023-03-27T09:37:43.021Z,41.82
2023-03-27T09:40:33.965Z,40.19
2023-03-27T09:43:12.576Z,39.38
2023-03-27T09:45:42.088Z,39.45
2023-03-27T09:48:27.764Z,39.87
2023-03-27T09:50:59.022Z,40.02
2023-03-27T09:53:33.025Z,40.69
2023-03-27T09:56:18.505Z,41.71
2023-03-27T09:58:50.979Z,40.87
2023-03-27T10:01:34.556Z,39.38
2023-03-27T10:04:24.193Z,39.32
2023-03-27T10:07:08.385Z,39.04
2023-03-27T10:10:18.194Z,38.84
2023-03-27T10:13:10.037Z,38.70
2023-03-27T10:15:43.115Z,38.21
2023-03-27T10:18:27.245Z,38.58
2023-03-27T10:21:10.080Z,39.27
2023-03-27T10:23:44.781Z,38.96
2023-03-27T10:26:21.857Z,38.19
2023-03-27T10:28:54.250Z,38.38
2023-03-27T10:31:28.681Z,38.45
2023-03-27T10:34:43.674Z,38.62
2023-03-27T10:37:31.907Z,38.44
2023-03-27T10:40:16.165Z,38.49
2023-03-27T10:42:46.583Z,38.70
2023-03-27T10:45:16.907Z,39.38
2023-03-27T10:47:51.022Z,39.46
2023-03-27T10:50:30.772Z,38.56
2023-03-27T10:53:33.570Z,37.41
2023-03-27T10:56:20.673Z,37.24
2023-03-27T10:58:52.182Z,37.57
2023-03-27T11:01:35.568Z,37.42
2023-03-27T11:04:19.920Z,36.88
2023-03-27T11:06:52.898Z,37.10
2023-03-27T11:09:33.496Z,37.30
2023-03-27T11:12:11.787Z,37.66
2023-03-27T11:15:07.696Z,37.55
2023-03-27T11:17:48.114Z,38.24
2023-03-27T11:20:26.166Z,38.59
2023-03-27T11:23:28.736Z,38.29
2023-03-27T11:26:16.422Z,38.25
2023-03-27T11:28:47.310Z,37.74
2023-03-27T11:31:38.264Z,37.87
2023-03-27T11:34:13.322Z,38.04
2023-03-27T11:37:05.918Z,38.19
2023-03-27T11:39:54.157Z,37.31
2023-03-27T11:42:24.477Z,36.51
2023-03-27T11:44:53.164Z,35.40
2023-03-27T11:47:58.388Z,35.16
2023-03-27T11:50:33.411Z,34.52
2023-03-27T11:53:27.524Z,35.24
2023-03-27T11:56:18.737Z,35.83
2023-03-27T11:59:05.036Z,35.29
2023-03-27T12:01:56.369Z,35.22
2023-03-27T12:05:17.383Z,35.85
2023-03-27T12:07:59.677Z,34.91
2023-03-27T12:10:38.914Z,34.74
2023-03-27T12:13:19.398Z,34.81
2023-03-27T12:15:48.055Z,34.68
2023-03-27T12:18:36.088Z,34.77
2023-03-27T12:21:13.763Z,34.86
2023-03-27T12:24:10.232Z,34.88
2023-03-27T12:27:05.508Z,34.82
2023-03-27T12:29:45.391Z,34.62
2023-03-27T12:32:29.475Z,34.93
2023-03-27T12:35:00.887Z,34.77
2023-03-27T12:37:44.019Z,34.37
2023-03-27T12:40:31.334Z,34.78
2023-03-27T12:43:26.950Z,35.25
2023-03-27T12:46:24.445Z,35.44
2023-03-27T12:49:10.837Z,35.49
2023-03-27T12:51:53.973Z,35.38
2023-03-27T12:54:42.688Z,35.01
2023-03-27T12:57:46.850Z,34.93
2023-03-27T13:00:24.117Z,34.92
2023-03-27T13:03:05.171Z,34.87
2023-03-27T13:05:54.757Z,35.08
2023-03-27T13:08:54.674Z,35.01
2023-03-27T13:12:07.914Z,34.86
2023-03-27T13:14:38.336Z,34.58
2023-03-27T13:17:15.115Z,34.23
2023-03-27T13:20:09.949Z,34.34
2023-03-27T13:23:09.938Z,34.39
2023-03-27T13:25:47.140Z,34.90
2023-03-27T13:28:31.476Z,35.12
2023-03-27T13:31:49.726Z,35.30
2023-03-27T13:34:27.858Z,35.20
2023-03-27T13:37:12.186Z,35.27
2023-03-27T13:39:58.994Z,34.80
2023-03-27T13:42:35.565Z,34.50
2023-03-27T13:45:09.746Z,33.31
2023-03-27T13:48:04.551Z,32.66
2023-03-27T13:51:15.261Z,32.75
2023-03-27T13:54:12.943Z,32.86
2023-03-27T13:56:49.795Z,32.65
2023-03-27T13:59:51.976Z,32.52
2023-03-27T14:03:02.642Z,31.57
2023-03-27T14:06:03.690Z,29.39
2023-03-27T14:09:01.293Z,27.38
2023-03-27T14:12:43.275Z,25.73
2023-03-27T14:15:39.103Z,23.62
2023-03-27T14:19:06.861Z,22.87
2023-03-27T14:21:53.626Z,22.92
2023-03-27T14:24:50.402Z,23.86
2023-03-27T14:27:41.413Z,25.44
2023-03-27T14:30:22.424Z,26.38
2023-03-27T14:32:58.189Z,27.42
2023-03-27T14:35:32.404Z,28.35
2023-03-27T14:38:31.022Z,29.27
2023-03-27T14:41:00.865Z,30.03
2023-03-27T14:43:49.924Z,30.81
2023-03-27T14:46:22.246Z,31.55
2023-03-27T14:48:56.221Z,31.89
2023-03-27T14:51:37.069Z,32.50
2023-03-27T14:54:14.212Z,32.79
2023-03-27T14:56:51.615Z,33.08
2023-03-27T14:59:36.835Z,33.44
2023-03-27T15:02:23.670Z,33.86
2023-03-27T15:04:56.739Z,33.90
2023-03-27T15:07:31.535Z,34.27
2023-03-27T15:10:07.654Z,34.63
2023-03-27T15:13:11.533Z,35.13
2023-03-27T15:15:47.396Z,35.55
2023-03-27T15:18:22.838Z,35.69
2023-03-27T15:20:51.249Z,36.03
2023-03-27T15:23:30.753Z,36.41
2023-03-27T15:26:12.906Z,36.82
2023-03-27T15:29:18.258Z,37.05
2023-03-27T15:31:49.108Z,37.32
2023-03-27T15:34:35.229Z,37.86
2023-03-27T15:37:05.925Z,38.26
2023-03-27T15:39:34.669Z,38.30
2023-03-27T15:42:05.187Z,38.50
2023-03-27T15:44:33.875Z,38.80
2023-03-27T15:47:02.107Z,39.04
2023-03-27T15:49:37.393Z,39.44
2023-03-27T15:52:30.277Z,39.51
2023-03-27T15:55:00.145Z,39.65
2023-03-27T15:57:29.745Z,39.67
2023-03-27T16:00:02.035Z,39.52
2023-03-27T16:02:30.908Z,39.74
2023-03-27T16:05:04.021Z,40.23
2023-03-27T16:07:43.449Z,40.58
2023-03-27T16:10:12.655Z,41.46
2023-03-27T16:12:47.699Z,41.92
2023-03-27T16:15:41.813Z,42.24
2023-03-27T16:18:32.470Z,42.36
2023-03-27T16:21:09.607Z,42.77
2023-03-27T16:23:38.139Z,42.60
2023-03-27T16:26:26.792Z,42.84
2023-03-27T16:28:55.684Z,42.82
2023-03-27T16:31:24.094Z,42.49
2023-03-27T16:33:52.959Z,42.57
2023-03-27T16:36:26.409Z,42.46
2023-03-27T16:38:54.622Z,42.31
2023-03-27T16:41:23.420Z,42.05
2023-03-27T16:43:51.497Z,42.04
2023-03-27T16:46:23.704Z,42.01
2023-03-27T16:48:52.857Z,41.88
2023-03-27T16:51:22.223Z,41.76
2023-03-27T16:53:50.584Z,41.83
2023-03-27T16:56:21.370Z,41.90
2023-03-27T16:58:49.397Z,41.88
2023-03-27T17:01:17.602Z,42.04
2023-03-27T17:03:46.783Z,42.17
2023-03-27T17:06:15.432Z,42.33
2023-03-27T17:08:43.628Z,42.19
2023-03-27T17:11:16.373Z,42.23
2023-03-27T17:13:45.205Z,42.48
2023-03-27T17:16:14.576Z,42.63
2023-03-27T17:18:43.652Z,42.72
2023-03-27T17:21:12.129Z,42.88
2023-03-27T17:23:43.688Z,42.97
2023-03-27T17:26:15.440Z,43.11
2023-03-27T17:28:44.302Z,43.34
2023-03-27T17:31:13.069Z,43.38
2023-03-27T17:33:41.501Z,43.51
2023-03-27T17:36:12.070Z,43.68
2023-03-27T17:38:41.645Z,43.83
2023-03-27T17:41:17.533Z,43.95
2023-03-27T17:43:49.767Z,44.15
2023-03-27T17:46:17.988Z,44.37
2023-03-27T17:48:47.342Z,44.56
2023-03-27T17:51:18.287Z,44.59
2023-03-27T17:53:48.918Z,44.61
2023-03-27T17:56:17.414Z,44.84
2023-03-27T17:58:48.930Z,44.58
2023-03-27T18:01:18.668Z,44.42
2023-03-27T18:03:47.509Z,44.40
2023-03-27T18:06:17.567Z,44.32
2023-03-27T18:08:46.474Z,44.25
2023-03-27T18:11:20.712Z,44.10
2023-03-27T18:13:53.454Z,43.87
2023-03-27T18:16:23.155Z,43.82
2023-03-27T18:18:54.370Z,43.92
2023-03-27T18:21:22.826Z,44.04
2023-03-27T18:23:53.479Z,44.10
2023-03-27T18:26:22.732Z,44.34
2023-03-27T18:28:52.584Z,44.50
2023-03-27T18:31:21.057Z,44.63
2023-03-27T18:33:49.503Z,44.74
2023-03-27T18:36:18.054Z,44.74
2023-03-27T18:38:49.153Z,44.84
2023-03-27T18:41:19.766Z,45.77
2023-03-27T18:43:47.931Z,47.35
2023-03-27T18:46:17.275Z,48.33
2023-03-27T18:48:46.287Z,49.38
2023-03-27T18:51:14.819Z,50.27
2023-03-27T18:53:43.604Z,50.86
2023-03-27T18:56:13.729Z,51.21
2023-03-27T18:58:42.932Z,51.64
2023-03-27T19:02:29.564Z,52.41
2023-03-27T19:06:36.578Z,52.37
2023-03-27T19:09:05.685Z,51.76
2023-03-27T19:11:38.480Z,51.83
2023-03-27T19:14:29.815Z,52.51
2023-03-27T19:17:17.081Z,53.46
2023-03-27T19:20:04.383Z,53.75
2023-03-27T19:22:52.089Z,54.17
2023-03-27T19:25:34.280Z,54.35
2023-03-27T19:28:03.106Z,53.97
2023-03-27T19:30:32.855Z,53.31
2023-03-27T19:33:02.537Z,52.96
2023-03-27T19:35:31.141Z,52.40
2023-03-27T19:37:59.620Z,51.94
2023-03-27T19:40:27.836Z,51.63
2023-03-27T19:42:56.787Z,51.45
2023-03-27T19:45:27.600Z,51.31
2023-03-27T19:47:56.374Z,50.75
2023-03-27T19:50:26.840Z,50.13
2023-03-27T19:53:18.069Z,49.46
2023-03-27T19:55:49.935Z,49.30
2023-03-27T19:58:18.025Z,49.14
2023-03-27T20:00:53.934Z,48.90
2023-03-27T20:03:24.490Z,48.53
2023-03-27T20:05:54.646Z,48.26
2023-03-27T20:08:25.100Z,48.14
2023-03-27T20:10:53.622Z,48.04
2023-03-27T20:13:22.270Z,48.04
2023-03-27T20:15:52.489Z,48.03
2023-03-27T20:18:22.278Z,47.96
2023-03-27T20:20:50.548Z,47.99
2023-03-27T20:23:23.784Z,48.19
2023-03-27T20:25:55.086Z,48.11
2023-03-27T20:28:25.492Z,48.14
2023-03-27T20:30:53.767Z,48.17
2023-03-27T20:33:22.712Z,48.31
2023-03-27T20:35:51.617Z,48.63
2023-03-27T20:38:20.156Z,48.70
2023-03-27T20:40:53.649Z,49.06
2023-03-27T20:43:31.046Z,49.15
2023-03-27T20:45:59.711Z,49.26
2023-03-27T20:48:40.427Z,49.18
2023-03-27T20:51:14.895Z,49.05
2023-03-27T20:53:54.041Z,49.03
2023-03-27T20:56:26.344Z,49.09
2023-03-27T20:58:55.048Z,49.16
2023-03-27T21:01:27.957Z,49.21
2023-03-27T21:03:58.619Z,49.51
2023-03-27T21:06:26.954Z,49.52
2023-03-27T21:08:58.688Z,49.55
2023-03-27T21:11:27.520Z,49.53
2023-03-27T21:13:55.830Z,49.66
2023-03-27T21:16:31.692Z,49.73
2023-03-27T21:19:00.940Z,49.81
2023-03-27T21:21:33.280Z,49.92
2023-03-27T21:24:02.362Z,49.88
2023-03-27T21:26:30.723Z,49.96
2023-03-27T21:29:03.999Z,50.04
2023-03-27T21:31:34.055Z,50.05
2023-03-27T21:34:02.143Z,50.10
2023-03-27T21:36:35.693Z,50.07
2023-03-27T21:39:04.977Z,50.06
2023-03-27T21:41:33.035Z,50.04
2023-03-27T21:44:01.257Z,50.04
2023-03-27T21:46:29.613Z,50.00
2023-03-27T21:48:59.377Z,50.01
2023-03-27T21:51:28.051Z,50.10
2023-03-27T21:54:03.442Z,50.07
2023-03-27T21:56:33.150Z,50.01
2023-03-27T21:59:01.702Z,49.95
2023-03-27T22:01:31.726Z,49.90
2023-03-27T22:04:04.532Z,49.87
2023-03-27T22:06:32.987Z,50.01
2023-03-27T22:09:03.173Z,50.11
2023-03-27T22:11:31.416Z,50.12
2023-03-27T22:14:00.116Z,50.01
2023-03-27T22:16:30.505Z,50.01
2023-03-27T22:19:01.439Z,50.13
2023-03-27T22:21:34.796Z,50.15
2023-03-27T22:24:03.925Z,50.20
2023-03-27T22:26:34.816Z,50.23
2023-03-27T22:29:07.781Z,50.28
2023-03-27T22:31:37.344Z,50.16
2023-03-27T22:34:06.020Z,50.11
2023-03-27T22:36:38.908Z,50.17
2023-03-27T22:39:07.026Z,50.23
2023-03-27T22:41:36.678Z,50.23
2023-03-27T22:44:05.221Z,50.37
2023-03-27T22:46:33.556Z,50.38
2023-03-27T22:49:01.680Z,50.47
2023-03-27T22:51:31.681Z,50.47
2023-03-27T22:54:01.659Z,50.53
2023-03-27T22:56:30.819Z,50.71
2023-03-27T22:58:58.979Z,50.75
2023-03-27T23:01:27.303Z,50.83
2023-03-27T23:03:55.995Z,50.94
2023-03-27T23:07:21.412Z,50.84
2023-03-27T23:10:08.865Z,50.94
2023-03-27T23:12:37.118Z,51.21
2023-03-27T23:15:06.586Z,51.39
2023-03-27T23:17:35.124Z,51.53
2023-03-27T23:20:06.831Z,51.71
2023-03-27T23:22:37.508Z,51.82
2023-03-27T23:25:06.607Z,51.88
2023-03-27T23:27:34.782Z,52.02
2023-03-27T23:30:03.107Z,52.09
2023-03-27T23:32:40.295Z,52.12
2023-03-27T23:35:11.862Z,52.20
2023-03-27T23:38:37.002Z,52.20
2023-03-27T23:41:23.867Z,52.24
2023-03-27T23:43:53.962Z,52.25
2023-03-27T23:46:22.132Z,52.20
2023-03-27T23:48:50.871Z,52.27
2023-03-27T23:51:22.197Z,52.10
2023-03-27T23:53:51.077Z,52.10
2023-03-27T23:56:19.345Z,52.24
2023-03-27T23:58:47.474Z,52.36
